createdAt,value
2018-08-31T00:01:01.959Z,101628.88
2018-08-31T00:06:15.581Z,101624.76
2018-08-31T00:11:28.297Z,101632.56
2018-08-31T00:16:30.481Z,101634.98
2018-08-31T00:21:32.578Z,101635.38
2018-08-31T00:26:46.445Z,101635.32
2018-08-31T00:32:03.658Z,101633.91
2018-08-31T00:39:19.716Z,101636.84
2018-08-31T00:44:32.262Z,101629.70
2018-08-31T00:49:34.391Z,101634.66
2018-08-31T00:54:36.566Z,101633.44
2018-08-31T00:59:38.689Z,101631.33
2018-08-31T01:04:41.001Z,101635.18
2018-08-31T01:09:43.133Z,101630.28
2018-08-31T01:14:45.306Z,101629.89
2018-08-31T01:19:47.406Z,101628.31
2018-08-31T01:24:49.548Z,101638.96
2018-08-31T01:29:52.019Z,101626.13
2018-08-31T01:34:54.179Z,101627.31
2018-08-31T01:39:56.351Z,101624.38
2018-08-31T01:44:58.535Z,101628.19
2018-08-31T01:50:00.886Z,101630.03
2018-08-31T01:55:03.041Z,101624.51
2018-08-31T02:00:05.219Z,101620.22
2018-08-31T02:05:07.376Z,101617.76
2018-08-31T02:10:09.534Z,101628.27
2018-08-31T02:15:11.707Z,101631.16
2018-08-31T02:20:13.831Z,101625.08
2018-08-31T02:25:15.964Z,101632.12
2018-08-31T02:30:18.086Z,101634.27
2018-08-31T02:35:20.230Z,101634.48
2018-08-31T02:40:22.375Z,101633.69
2018-08-31T02:45:24.885Z,101632.20
2018-08-31T02:50:27.019Z,101635.83
2018-08-31T02:55:29.135Z,101631.44
2018-08-31T03:00:31.274Z,101633.50
2018-08-31T03:05:33.369Z,101638.71
2018-08-31T03:10:35.508Z,101634.67
2018-08-31T03:15:37.693Z,101635.81
2018-08-31T03:20:39.799Z,101642.16
2018-08-31T03:25:41.924Z,101651.68
2018-08-31T03:30:44.041Z,101648.22
2018-08-31T03:35:46.168Z,101651.45
2018-08-31T03:40:48.291Z,101652.55
2018-08-31T03:45:50.410Z,101652.55
2018-08-31T03:50:52.645Z,101656.58
2018-08-31T03:55:54.696Z,101660.56
2018-08-31T04:00:56.849Z,101656.36
2018-08-31T04:05:58.970Z,101658.90
2018-08-31T04:11:01.098Z,101665.40
2018-08-31T04:16:03.268Z,101659.92
2018-08-31T04:21:05.395Z,101661.42
2018-08-31T04:26:07.494Z,101662.50
2018-08-31T04:31:09.625Z,101656.25
2018-08-31T04:36:11.721Z,101662.59
2018-08-31T04:41:13.888Z,101658.58
2018-08-31T04:46:15.991Z,101658.75
2018-08-31T04:51:18.240Z,101657.97
2018-08-31T04:56:20.355Z,101664.89
2018-08-31T05:01:22.709Z,101660.24
2018-08-31T05:06:24.827Z,101663.88
2018-08-31T05:11:27.094Z,101661.83
2018-08-31T05:16:29.253Z,101660.34
2018-08-31T05:21:31.438Z,101669.27
2018-08-31T05:26:33.585Z,101672.21
2018-08-31T05:31:35.704Z,101680.92
2018-08-31T05:36:37.821Z,101679.30
2018-08-31T05:41:40.714Z,101683.25
2018-08-31T05:46:42.918Z,101682.89
2018-08-31T05:51:45.078Z,101684.73
2018-08-31T05:56:47.215Z,101695.91
2018-08-31T06:01:49.332Z,101690.84
2018-08-31T06:06:51.480Z,101695.91
2018-08-31T06:11:53.662Z,101687.66
2018-08-31T06:16:55.781Z,101691.33
2018-08-31T06:21:57.907Z,101695.11
2018-08-31T06:27:00.004Z,101273.13
2018-08-31T06:32:02.595Z,101692.52
2018-08-31T06:37:05.172Z,101689.86
2018-08-31T06:42:07.329Z,101689.66
2018-08-31T06:47:09.438Z,101689.95
2018-08-31T06:52:11.604Z,101686.04
2018-08-31T06:57:13.770Z,101683.06
2018-08-31T07:02:15.905Z,101687.47
2018-08-31T07:07:18.082Z,101690.38
2018-08-31T07:12:20.283Z,101694.45
2018-08-31T07:17:22.346Z,101688.66
2018-08-31T07:22:24.503Z,101691.92
2018-08-31T07:27:26.648Z,101694.38
2018-08-31T07:32:28.825Z,101702.64
2018-08-31T07:37:31.041Z,101700.75
2018-08-31T07:42:33.118Z,101702.16
2018-08-31T07:47:35.343Z,101705.53
2018-08-31T07:52:37.483Z,101708.05
2018-08-31T07:57:39.639Z,101702.17
2018-08-31T08:02:41.799Z,101697.06
2018-08-31T08:07:43.931Z,101699.73
2018-08-31T08:12:46.279Z,101699.83
2018-08-31T08:17:48.430Z,101694.63
2018-08-31T08:22:50.562Z,101702.48
2018-08-31T08:27:52.819Z,101702.95
2018-08-31T08:32:54.966Z,101699.28
2018-08-31T08:37:57.176Z,101704.08
2018-08-31T08:42:59.422Z,101705.53
2018-08-31T08:48:01.593Z,101704.66
2018-08-31T08:53:04.090Z,101709.93
2018-08-31T08:58:06.368Z,101716.49
2018-08-31T09:03:08.527Z,101720.64
2018-08-31T09:08:10.645Z,101719.48
2018-08-31T09:13:12.787Z,101722.48
2018-08-31T09:18:15.032Z,101724.36
2018-08-31T09:23:17.174Z,101724.87
2018-08-31T09:28:19.355Z,101729.59
2018-08-31T09:33:21.550Z,101724.20
2018-08-31T09:38:23.746Z,101727.66
2018-08-31T09:43:25.921Z,101720.66
2018-08-31T09:48:28.116Z,101723.48
2018-08-31T09:53:30.306Z,101727.43
2018-08-31T09:58:32.561Z,101725.67
2018-08-31T10:03:34.687Z,101716.04
2018-08-31T10:08:36.929Z,101714.00
2018-08-31T10:13:39.108Z,101719.70
2018-08-31T10:18:41.371Z,101727.69
2018-08-31T10:23:43.451Z,101719.52
2018-08-31T10:28:45.660Z,101714.02
2018-08-31T10:33:47.799Z,101718.05
2018-08-31T10:38:49.919Z,101714.47
2018-08-31T10:43:52.127Z,101708.50
2018-08-31T10:48:54.312Z,101712.58
2018-08-31T10:53:56.511Z,101709.23
2018-08-31T10:58:58.707Z,101703.77
2018-08-31T11:04:00.839Z,101719.05
2018-08-31T11:09:04.523Z,101710.20
2018-08-31T11:14:06.672Z,101704.17
2018-08-31T11:19:08.848Z,101707.50
2018-08-31T11:24:11.017Z,101707.01
2018-08-31T11:29:13.189Z,101710.40
2018-08-31T11:34:15.312Z,101701.95
2018-08-31T11:39:17.510Z,101697.84
2018-08-31T11:44:19.663Z,101698.84
2018-08-31T11:49:21.819Z,101707.66
2018-08-31T11:54:24.012Z,101701.68
2018-08-31T11:59:26.181Z,101704.04
2018-08-31T12:04:28.360Z,101694.63
2018-08-31T12:09:30.509Z,101689.35
2018-08-31T12:14:32.657Z,101691.73
2018-08-31T12:19:34.919Z,101688.55
2018-08-31T12:24:37.146Z,101703.64
2018-08-31T12:29:39.332Z,101699.27
2018-08-31T12:34:41.509Z,101695.48
2018-08-31T12:39:43.686Z,101693.45
2018-08-31T12:44:45.826Z,101694.73
2018-08-31T12:49:47.980Z,101688.73
2018-08-31T12:54:50.214Z,101688.20
2018-08-31T12:59:58.912Z,101689.42
2018-08-31T13:05:01.596Z,101688.09
2018-08-31T13:10:03.809Z,101681.16
2018-08-31T13:15:06.073Z,101679.36
2018-08-31T13:20:08.314Z,101683.52
2018-08-31T13:25:10.546Z,101697.02
2018-08-31T13:30:12.667Z,101688.96
2018-08-31T13:35:14.852Z,101695.48
2018-08-31T13:40:17.052Z,101689.88
2018-08-31T13:45:19.240Z,101692.45
2018-08-31T13:50:21.654Z,101695.82
2018-08-31T13:55:24.203Z,101696.11
2018-08-31T14:00:26.368Z,101696.17
2018-08-31T14:05:28.575Z,101695.41
2018-08-31T14:10:30.727Z,101692.88
2018-08-31T14:15:32.911Z,101693.03
2018-08-31T14:20:35.117Z,101693.70
2018-08-31T14:25:37.486Z,101694.81
2018-08-31T14:30:39.606Z,101688.48
2018-08-31T14:35:41.859Z,101689.47
2018-08-31T14:40:44.046Z,101685.77
2018-08-31T14:45:46.226Z,101697.23
2018-08-31T14:50:48.527Z,101699.61
2018-08-31T14:55:50.819Z,101686.05
2018-08-31T15:00:53.058Z,101682.40
2018-08-31T15:05:55.234Z,101687.30
2018-08-31T15:10:57.439Z,101691.34
2018-08-31T15:15:59.624Z,101689.48
2018-08-31T15:21:01.866Z,101692.61
2018-08-31T15:26:04.096Z,101691.37
2018-08-31T15:31:06.237Z,101695.34
2018-08-31T15:36:08.425Z,101694.50
2018-08-31T15:41:10.605Z,101699.83
2018-08-31T15:46:12.767Z,101709.33
2018-08-31T15:51:14.943Z,101714.20
2018-08-31T15:56:17.151Z,101716.53
2018-08-31T16:01:19.340Z,101720.80
2018-08-31T16:06:21.503Z,101733.05
2018-08-31T16:11:23.893Z,101321.20
2018-08-31T16:16:26.079Z,101728.29
2018-08-31T16:21:28.257Z,101731.41
2018-08-31T16:26:30.516Z,101727.32
2018-08-31T16:31:32.742Z,101731.79
2018-08-31T16:36:34.935Z,101734.17
2018-08-31T16:41:37.406Z,101730.59
2018-08-31T16:46:39.600Z,101737.23
2018-08-31T16:51:41.785Z,101736.20
2018-08-31T16:56:44.032Z,101737.44
2018-08-31T17:01:46.209Z,101743.40
2018-08-31T17:06:48.378Z,101745.08
2018-08-31T17:11:50.491Z,101740.70
2018-08-31T17:16:52.689Z,101739.23
2018-08-31T17:21:54.860Z,101752.40
2018-08-31T17:27:03.068Z,101762.59
2018-08-31T17:32:11.075Z,101764.84
2018-08-31T17:37:19.090Z,101773.72
2018-08-31T17:42:21.514Z,101783.34
2018-08-31T17:47:23.738Z,101782.80
2018-08-31T17:52:25.946Z,101793.30
2018-08-31T17:57:28.219Z,101798.79
2018-08-31T18:02:30.406Z,101804.56
2018-08-31T18:07:33.451Z,101804.86
2018-08-31T18:12:35.809Z,101821.39
2018-08-31T18:17:38.022Z,101827.64
2018-08-31T18:22:40.252Z,101827.47
2018-08-31T18:27:42.451Z,101834.13
2018-08-31T18:32:44.643Z,101842.52
2018-08-31T18:37:47.048Z,101844.05
2018-08-31T18:42:49.303Z,101845.58
2018-08-31T18:47:51.575Z,101853.16
2018-08-31T18:52:53.835Z,101861.89
2018-08-31T18:57:56.223Z,101857.06
2018-08-31T19:02:58.520Z,101863.39
2018-08-31T19:08:01.426Z,101868.94
2018-08-31T19:13:03.738Z,101874.80
2018-08-31T19:18:06.023Z,101877.00
2018-08-31T19:23:08.355Z,101875.89
2018-08-31T19:28:10.596Z,101878.62
2018-08-31T19:33:13.449Z,101875.38
2018-08-31T19:38:15.703Z,101873.50
2018-08-31T19:43:17.873Z,101873.06
2018-08-31T19:48:20.162Z,101869.03
2018-08-31T19:53:22.394Z,101868.92
2018-08-31T19:58:24.639Z,101866.72
2018-08-31T20:03:27.257Z,101866.66
2018-08-31T20:08:30.144Z,101877.00
2018-08-31T20:13:32.368Z,101876.47
2018-08-31T20:18:34.884Z,101877.70
2018-08-31T20:23:37.179Z,101876.67
2018-08-31T20:28:39.392Z,101881.75
2018-08-31T20:33:41.566Z,101880.76
2018-08-31T20:38:44.190Z,101881.20
2018-08-31T20:43:46.312Z,101883.13
2018-08-31T20:48:48.466Z,101889.90
2018-08-31T20:53:50.676Z,101894.34
2018-08-31T20:58:52.847Z,101882.20
2018-08-31T21:03:55.868Z,101891.48
2018-08-31T21:08:58.071Z,101891.31
2018-08-31T21:14:00.206Z,101894.17
2018-08-31T21:19:02.504Z,101894.02
2018-08-31T21:24:04.714Z,101900.16
2018-08-31T21:29:06.904Z,101900.06
2018-08-31T21:34:09.168Z,101899.73
2018-08-31T21:39:11.340Z,101906.45
2018-08-31T21:44:13.478Z,101908.36
2018-08-31T21:49:15.700Z,101916.55
2018-08-31T21:54:17.877Z,101923.16
2018-08-31T21:59:20.083Z,101924.40
2018-08-31T22:04:24.502Z,101925.75
2018-08-31T22:09:27.415Z,101931.91
2018-08-31T22:14:29.603Z,101928.64
2018-08-31T22:19:31.771Z,101932.87
2018-08-31T22:24:33.927Z,101942.56
2018-08-31T22:29:36.071Z,101944.93
2018-08-31T22:34:38.235Z,101952.18
2018-08-31T22:39:40.355Z,101956.77
2018-08-31T22:44:42.499Z,101955.19
2018-08-31T22:49:44.619Z,101950.88
2018-08-31T22:54:46.908Z,101951.52
2018-08-31T22:59:49.068Z,101948.67
2018-08-31T23:04:51.229Z,101948.20
2018-08-31T23:09:53.412Z,101953.98
2018-08-31T23:14:55.574Z,101952.88
2018-08-31T23:19:58.571Z,101957.19
2018-08-31T23:25:01.434Z,101963.77
2018-08-31T23:30:03.687Z,101970.58
2018-08-31T23:35:05.832Z,101974.80
2018-08-31T23:40:08.043Z,101974.33
2018-08-31T23:45:10.176Z,101972.21
2018-08-31T23:50:12.482Z,101975.05
2018-08-31T23:55:14.626Z,101977.47
